Time;durP1;ratioP1;P1;durP2;ratioP2;P2;SDS_P1;SDS_P2;PMS_P1;PMS_P2;Temp;Humidity;BMP_temperature;BMP_pressure;BME280_temperature;BME280_humidity;BME280_pressure;Samples;Min_cycle;Max_cycle;Signal;HPM_P1;HPM_P2
2021/03/16 00:00:26;;;;;;;8.25;2.25;;;4.60;8.70;;;;;;4942617;28;20134;-73
2021/03/16 00:02:57;;;;;;;7.05;2.58;;;4.50;8.70;;;;;;4943286;29;20129;-74
2021/03/16 00:05:25;;;;;;;11.18;3.20;;;4.50;8.60;;;;;;4944930;29;20094;-74
2021/03/16 00:07:52;;;;;;;6.55;2.30;;;4.40;9.20;;;;;;4944626;29;20510;-74
2021/03/16 00:10:19;;;;;;;6.55;2.65;;;4.50;6.90;;;;;;4940209;29;20474;-73
2021/03/16 00:12:47;;;;;;;8.02;3.00;;;4.60;6.40;;;;;;4940310;29;20059;-74
2021/03/16 00:15:15;;;;;;;7.97;2.78;;;4.50;6.80;;;;;;4939840;29;20060;-75
2021/03/16 00:17:43;;;;;;;6.78;2.97;;;4.50;7.30;;;;;;4948818;29;20058;-74
2021/03/16 00:20:11;;;;;;;6.05;2.47;;;4.40;7.80;;;;;;4945739;29;20382;-74
2021/03/16 00:22:38;;;;;;;5.78;2.42;;;4.50;8.10;;;;;;4942032;29;20134;-75
2021/03/16 00:25:14;;;;;;;5.90;2.20;;;4.50;8.30;;;;;;4948246;29;20054;-74
2021/03/16 00:27:41;;;;;;;5.95;2.80;;;4.50;8.10;;;;;;4940324;29;20494;-74
2021/03/16 00:30:09;;;;;;;8.70;2.55;;;4.50;8.20;;;;;;4945530;29;20055;-74
2021/03/16 00:32:37;;;;;;;7.68;2.17;;;4.50;8.00;;;;;;4941937;29;20139;-74
2021/03/16 00:35:07;;;;;;;5.43;2.53;;;4.50;8.60;;;;;;4944200;29;20052;-74
2021/03/16 00:37:34;;;;;;;6.38;2.47;;;4.50;8.40;;;;;;4951572;29;20094;-75
2021/03/16 00:40:01;;;;;;;8.85;2.53;;;4.50;8.10;;;;;;4940818;29;20138;-74
2021/03/16 00:42:28;;;;;;;5.22;1.85;;;4.50;7.60;;;;;;4942688;29;20457;-74
2021/03/16 00:44:55;;;;;;;11.32;2.72;;;4.50;7.80;;;;;;4944044;29;20057;-74
2021/03/16 00:47:22;;;;;;;6.13;2.30;;;4.50;8.10;;;;;;4947772;29;20074;-74
2021/03/16 00:49:49;;;;;;;4.70;2.30;;;4.50;8.00;;;;;;4949122;29;20047;-74
2021/03/16 00:52:16;;;;;;;6.55;2.38;;;4.50;7.90;;;;;;4947511;29;20055;-73
2021/03/16 00:54:43;;;;;;;4.95;2.00;;;4.50;7.00;;;;;;4940869;29;20078;-74
2021/03/16 00:57:10;;;;;;;4.03;2.22;;;4.50;6.40;;;;;;4939647;29;20060;-74
2021/03/16 00:59:37;;;;;;;4.47;2.20;;;4.50;6.60;;;;;;4946214;29;20421;-73
2021/03/16 01:02:03;;;;;;;4.60;1.98;;;4.40;6.40;;;;;;4942130;29;20055;-73
2021/03/16 01:04:30;;;;;;;6.40;1.95;;;4.50;6.00;;;;;;4938936;29;20063;-73
2021/03/16 01:06:57;;;;;;;6.82;3.03;;;4.40;6.10;;;;;;4941495;29;20131;-74
2021/03/16 01:09:25;;;;;;;8.18;2.45;;;4.40;6.70;;;;;;4943804;29;20051;-73
2021/03/16 01:11:52;;;;;;;5.18;1.98;;;4.30;7.40;;;;;;4943724;29;20052;-73
2021/03/16 01:14:19;;;;;;;8.00;2.65;;;4.20;8.50;;;;;;4941015;29;20048;-72
2021/03/16 01:16:46;;;;;;;7.03;2.80;;;4.20;8.50;;;;;;4944814;29;20067;-73
2021/03/16 01:19:13;;;;;;;8.10;2.65;;;4.20;8.50;;;;;;4945942;29;20066;-74
2021/03/16 01:21:40;;;;;;;4.85;2.72;;;4.20;9.30;;;;;;4945599;29;20599;-73
2021/03/16 01:24:09;;;;;;;6.03;2.50;;;4.20;9.20;;;;;;4938269;29;20071;-74
2021/03/16 01:26:36;;;;;;;6.55;2.95;;;4.20;9.30;;;;;;4941088;29;20056;-74
2021/03/16 01:29:04;;;;;;;7.15;2.90;;;4.30;9.60;;;;;;4941623;29;20043;-74
2021/03/16 01:31:31;;;;;;;10.55;3.10;;;4.40;9.30;;;;;;4945205;29;20063;-73
2021/03/16 01:33:58;;;;;;;13.40;3.63;;;4.30;8.60;;;;;;4936283;29;20051;-74
2021/03/16 01:36:26;;;;;;;7.68;2.70;;;4.30;8.60;;;;;;4939557;29;20058;-75
2021/03/16 01:38:53;;;;;;;5.13;2.72;;;4.30;9.20;;;;;;4940903;28;20426;-73
2021/03/16 01:41:20;;;;;;;8.25;2.53;;;4.40;9.10;;;;;;4942707;29;20114;-74
2021/03/16 01:43:49;;;;;;;7.88;2.67;;;4.30;9.50;;;;;;4937542;29;20051;-73
2021/03/16 01:46:18;;;;;;;5.50;3.10;;;4.30;8.70;;;;;;4940647;29;20067;-74
2021/03/16 01:48:46;;;;;;;7.28;2.67;;;4.30;9.30;;;;;;4941541;29;20070;-74
2021/03/16 01:51:13;;;;;;;9.73;3.25;;;4.30;9.40;;;;;;4941722;29;20054;-74
2021/03/16 01:53:41;;;;;;;5.28;2.75;;;4.30;9.60;;;;;;4935649;29;20055;-74
2021/03/16 01:56:24;;;;;;;7.28;2.45;;;4.30;9.80;;;;;;4937246;29;20119;-74
2021/03/16 01:58:56;;;;;;;7.55;2.90;;;4.30;10.30;;;;;;4939554;29;20103;-73
2021/03/16 02:01:23;;;;;;;5.45;2.58;;;4.30;10.90;;;;;;4940102;29;20131;-73
2021/03/16 02:03:53;;;;;;;6.35;2.42;;;4.30;11.00;;;;;;4935521;29;20051;-73
2021/03/16 02:06:30;;;;;;;8.75;3.00;;;4.20;10.80;;;;;;4936860;29;20115;-74
2021/03/16 02:09:06;;;;;;;6.97;2.78;;;4.30;11.00;;;;;;4937929;29;20517;-73
2021/03/16 02:11:39;;;;;;;8.35;2.92;;;4.20;11.00;;;;;;4943598;29;20781;-73
2021/03/16 02:14:12;;;;;;;;;;;4.20;10.80;;;;;;4934802;29;20043;-73
2021/03/16 02:16:45;;;;;;;6.72;3.35;;;4.20;10.90;;;;;;4941644;29;19930;-74
2021/03/16 02:19:23;;;;;;;8.52;2.95;;;4.10;11.10;;;;;;4941998;29;20043;-74
2021/03/16 02:21:51;;;;;;;6.15;2.72;;;4.20;11.70;;;;;;4939114;29;20043;-71
2021/03/16 02:24:30;;;;;;;8.88;3.15;;;4.20;12.00;;;;;;4937468;29;20210;-73
2021/03/16 02:27:09;;;;;;;7.70;2.38;;;4.10;11.90;;;;;;4938910;29;20444;-73
2021/03/16 02:29:43;;;;;;;7.78;2.67;;;4.10;12.30;;;;;;4939903;29;20050;-73
2021/03/16 02:32:15;;;;;;;7.80;3.03;;;4.10;12.50;;;;;;4938363;29;20517;-74
2021/03/16 02:34:47;;;;;;;7.40;2.47;;;4.10;12.50;;;;;;4935429;29;20047;-74
2021/03/16 02:37:16;;;;;;;6.40;3.13;;;4.10;12.60;;;;;;4940030;29;20062;-74
2021/03/16 02:39:45;;;;;;;7.25;2.95;;;4.20;12.80;;;;;;4941905;29;21270;-73
2021/03/16 02:42:14;;;;;;;6.78;2.80;;;4.10;12.80;;;;;;4935839;29;20134;-73
2021/03/16 02:44:43;;;;;;;4.80;2.80;;;4.10;12.90;;;;;;4937185;29;20047;-72
2021/03/16 02:47:11;;;;;;;6.60;2.70;;;4.10;13.50;;;;;;4939630;29;20132;-74
2021/03/16 02:49:42;;;;;;;6.72;2.67;;;4.00;15.10;;;;;;4941819;29;20054;-73
2021/03/16 02:52:11;;;;;;;9.10;3.33;;;3.90;15.40;;;;;;4938338;29;20691;-74
2021/03/16 02:54:39;;;;;;;11.20;3.50;;;3.90;16.20;;;;;;4936988;29;20047;-74
2021/03/16 02:57:10;;;;;;;7.47;3.33;;;3.80;17.40;;;;;;4938923;29;20407;-74
2021/03/16 02:59:39;;;;;;;11.27;3.78;;;3.90;17.30;;;;;;4940320;28;20051;-74
2021/03/16 03:02:10;;;;;;;8.43;3.17;;;3.90;16.50;;;;;;4938825;29;20052;-73
2021/03/16 03:04:41;;;;;;;8.32;2.90;;;3.90;16.70;;;;;;4936484;29;21552;-73
2021/03/16 03:07:09;;;;;;;6.05;2.85;;;3.90;16.70;;;;;;4942414;29;20047;-73
2021/03/16 03:09:37;;;;;;;9.40;3.35;;;3.90;15.40;;;;;;4939760;29;20521;-73
2021/03/16 03:12:05;;;;;;;5.78;2.85;;;3.90;15.70;;;;;;4938017;29;20677;-74
2021/03/16 03:14:33;;;;;;;11.30;2.92;;;3.90;15.70;;;;;;4937318;29;20134;-74
2021/03/16 03:17:00;;;;;;;6.32;2.60;;;4.00;16.30;;;;;;4939600;29;20054;-74
2021/03/16 03:19:28;;;;;;;10.25;2.92;;;3.90;15.40;;;;;;4942056;29;20056;-74
2021/03/16 03:21:59;;;;;;;7.25;3.42;;;3.90;15.90;;;;;;4936656;29;20059;-74
2021/03/16 03:24:36;;;;;;;7.18;2.92;;;3.90;16.70;;;;;;4937319;29;20051;-73
2021/03/16 03:27:07;;;;;;;6.13;2.70;;;3.80;17.80;;;;;;4941454;29;20054;-74
2021/03/16 03:29:35;;;;;;;5.25;2.30;;;3.70;18.20;;;;;;4943444;28;20497;-74
2021/03/16 03:32:03;;;;;;;7.22;2.67;;;3.70;18.80;;;;;;4943525;29;20070;-75
2021/03/16 03:34:33;;;;;;;12.65;3.03;;;3.70;17.40;;;;;;4937742;29;20052;-73
2021/03/16 03:37:02;;;;;;;5.85;2.47;;;3.80;18.00;;;;;;4942766;29;20047;-73
2021/03/16 03:39:32;;;;;;;5.38;2.67;;;3.70;18.30;;;;;;4946164;29;20494;-72
2021/03/16 03:41:59;;;;;;;7.45;2.70;;;3.70;17.70;;;;;;4944275;29;20142;-74
2021/03/16 03:44:29;;;;;;;11.93;3.00;;;3.70;18.60;;;;;;4943455;29;20051;-73
2021/03/16 03:46:56;;;;;;;7.78;2.53;;;3.70;18.70;;;;;;4945075;29;20048;-74
2021/03/16 03:49:25;;;;;;;11.20;3.15;;;3.70;17.90;;;;;;4940678;29;20398;-73
2021/03/16 03:51:56;;;;;;;7.07;2.70;;;3.70;18.30;;;;;;4946315;29;20055;-73
2021/03/16 03:54:23;;;;;;;6.85;3.25;;;3.70;18.00;;;;;;4944773;29;20074;-72
2021/03/16 03:56:51;;;;;;;7.53;2.90;;;3.80;16.70;;;;;;4949801;29;20055;-73
2021/03/16 03:59:19;;;;;;;6.97;2.78;;;3.80;17.20;;;;;;4945988;29;20051;-74
2021/03/16 04:01:47;;;;;;;8.88;2.97;;;3.80;17.60;;;;;;4942636;29;20047;-74
2021/03/16 04:04:14;;;;;;;8.27;2.42;;;3.70;17.00;;;;;;4943659;29;20267;-74
2021/03/16 04:06:42;;;;;;;6.45;2.70;;;3.70;17.10;;;;;;4946246;29;20421;-72
2021/03/16 04:09:10;;;;;;;5.88;2.17;;;3.70;16.80;;;;;;4942572;29;20044;-72
2021/03/16 04:11:39;;;;;;;6.75;2.35;;;3.70;16.90;;;;;;4947687;29;20051;-75
2021/03/16 04:14:06;;;;;;;6.90;2.38;;;3.70;17.70;;;;;;4942922;29;20497;-73
2021/03/16 04:16:34;;;;;;;7.97;2.75;;;3.50;18.70;;;;;;4950973;29;20056;-73
2021/03/16 04:19:02;;;;;;;10.50;3.33;;;3.30;21.20;;;;;;4946861;29;20051;-73
2021/03/16 04:21:29;;;;;;;6.07;2.35;;;3.40;22.00;;;;;;4940341;29;20047;-73
2021/03/16 04:23:56;;;;;;;9.60;2.67;;;3.30;22.00;;;;;;4936000;29;20076;-74
2021/03/16 04:26:24;;;;;;;11.70;2.28;;;3.40;22.00;;;;;;4942339;29;20054;-73
2021/03/16 04:28:51;;;;;;;10.10;2.72;;;3.30;22.00;;;;;;4946887;29;20047;-72
2021/03/16 04:31:18;;;;;;;9.05;3.33;;;3.30;23.60;;;;;;4941911;29;20130;-72
2021/03/16 04:33:45;;;;;;;10.52;3.33;;;3.30;24.00;;;;;;4936726;29;20051;-74
2021/03/16 04:36:12;;;;;;;5.55;2.72;;;3.30;24.80;;;;;;4946374;29;20142;-73
2021/03/16 04:38:38;;;;;;;7.90;2.60;;;3.30;25.30;;;;;;4946074;29;20058;-72
2021/03/16 04:41:05;;;;;;;9.90;2.85;;;3.30;25.40;;;;;;4942383;29;20485;-74
2021/03/16 04:43:33;;;;;;;5.05;2.58;;;3.30;25.30;;;;;;4939681;29;20064;-74
2021/03/16 04:46:00;;;;;;;5.32;2.50;;;3.40;24.80;;;;;;4943176;29;20055;-72
2021/03/16 04:48:27;;;;;;;9.93;3.17;;;3.30;24.10;;;;;;4940345;29;20054;-74
2021/03/16 04:50:54;;;;;;;9.25;2.85;;;3.40;23.50;;;;;;4949408;29;20514;-73
2021/03/16 04:53:21;;;;;;;6.80;2.38;;;3.40;22.90;;;;;;4946497;29;20066;-73
2021/03/16 04:55:48;;;;;;;14.98;3.63;;;3.40;22.30;;;;;;4945383;28;20040;-73
2021/03/16 04:58:35;;;;;;;8.70;2.42;;;3.40;22.00;;;;;;4938743;29;20079;-72
2021/03/16 05:01:03;;;;;;;6.82;2.28;;;3.40;21.10;;;;;;4945207;29;20051;-71
2021/03/16 05:03:30;;;;;;;4.50;2.03;;;3.40;22.00;;;;;;4939930;29;20079;-73
2021/03/16 05:05:57;;;;;;;9.35;2.28;;;3.40;21.00;;;;;;4944680;29;20103;-73
2021/03/16 05:08:25;;;;;;;7.88;2.30;;;3.50;21.00;;;;;;4948193;29;20060;-72
2021/03/16 05:10:52;;;;;;;7.57;2.42;;;3.50;20.90;;;;;;4944426;29;20065;-74
2021/03/16 05:13:20;;;;;;;5.40;2.50;;;3.50;20.60;;;;;;4939464;29;20055;-77
2021/03/16 05:15:48;;;;;;;4.88;2.60;;;3.40;20.40;;;;;;4945008;29;20051;-72
2021/03/16 05:18:15;;;;;;;8.13;2.97;;;3.50;20.50;;;;;;4947832;29;20122;-73
2021/03/16 05:20:43;;;;;;;12.88;2.70;;;3.50;21.00;;;;;;4942930;29;20055;-73
2021/03/16 05:23:10;;;;;;;9.65;2.78;;;3.50;21.10;;;;;;4938976;29;20052;-72
2021/03/16 05:25:37;;;;;;;3.85;2.38;;;3.40;21.50;;;;;;4942983;29;20074;-72
2021/03/16 05:28:04;;;;;;;5.97;2.85;;;3.40;22.00;;;;;;4948532;28;20059;-73
2021/03/16 05:30:31;;;;;;;11.70;2.80;;;3.40;23.80;;;;;;4943007;29;20062;-73
2021/03/16 05:32:59;;;;;;;7.07;2.47;;;3.40;23.20;;;;;;4939977;29;20135;-72
2021/03/16 05:35:27;;;;;;;10.57;3.33;;;3.40;22.70;;;;;;4942151;29;20047;-72
2021/03/16 05:37:56;;;;;;;9.98;2.33;;;3.40;22.00;;;;;;4938291;29;20056;-73
2021/03/16 05:40:23;;;;;;;5.65;3.17;;;3.40;22.00;;;;;;4934533;29;20059;-76
2021/03/16 05:42:51;;;;;;;7.30;2.95;;;3.50;22.10;;;;;;4934542;29;20048;-72
2021/03/16 05:45:18;;;;;;;8.15;2.78;;;3.50;22.70;;;;;;4941463;29;20055;-71
2021/03/16 05:47:48;;;;;;;8.40;2.60;;;3.50;22.10;;;;;;4943676;29;20063;-73
2021/03/16 05:50:17;;;;;;;7.53;2.85;;;3.60;22.00;;;;;;4938698;29;20131;-73
2021/03/16 05:52:44;;;;;;;10.65;3.40;;;3.60;21.90;;;;;;4943043;29;20055;-72
2021/03/16 05:55:12;;;;;;;8.60;2.90;;;3.60;22.10;;;;;;4937693;29;20044;-73
2021/03/16 05:57:40;;;;;;;5.78;2.75;;;3.60;20.10;;;;;;4938582;29;20051;-74
2021/03/16 06:00:08;;;;;;;8.65;2.65;;;3.60;19.40;;;;;;4940183;29;20048;-74
2021/03/16 06:02:36;;;;;;;8.68;2.85;;;3.60;20.10;;;;;;4939745;29;20142;-74
2021/03/16 06:05:05;;;;;;;8.65;3.17;;;3.60;19.40;;;;;;4933859;29;20463;-73
2021/03/16 06:07:33;;;;;;;8.68;3.33;;;3.70;19.70;;;;;;4940366;29;20051;-74
2021/03/16 06:10:00;;;;;;;8.90;3.10;;;3.70;19.30;;;;;;4938713;29;20059;-73
2021/03/16 06:12:30;;;;;;;8.80;3.30;;;3.70;19.40;;;;;;4941057;29;20129;-74
2021/03/16 06:14:57;;;;;;;10.48;3.13;;;3.60;18.80;;;;;;4937909;29;20534;-72
2021/03/16 06:17:24;;;;;;;7.60;3.10;;;3.70;18.80;;;;;;4940640;29;20052;-73
2021/03/16 06:19:51;;;;;;;8.00;2.30;;;3.70;19.00;;;;;;4940476;29;20063;-73
2021/03/16 06:22:19;;;;;;;10.40;2.70;;;3.70;18.50;;;;;;4939957;29;20051;-73
2021/03/16 06:24:48;;;;;;;6.43;2.90;;;3.70;18.80;;;;;;4932762;29;20572;-72
2021/03/16 06:27:22;;;;;;;10.18;2.92;;;3.70;18.60;;;;;;4940053;29;20051;-73
2021/03/16 06:29:50;;;;;;;9.00;3.38;;;3.70;18.40;;;;;;4939915;29;20055;-75
2021/03/16 06:32:17;;;;;;;5.63;2.53;;;3.70;18.00;;;;;;4938060;29;20425;-72
2021/03/16 06:34:44;;;;;;;10.20;3.05;;;3.70;17.60;;;;;;4934165;29;20049;-75
2021/03/16 06:37:11;;;;;;;14.68;3.53;;;3.70;18.80;;;;;;4940050;29;20060;-73
2021/03/16 06:39:43;;;;;;;5.32;2.90;;;3.80;18.80;;;;;;4939922;29;20051;-73
2021/03/16 06:42:21;;;;;;;6.53;2.47;;;3.70;17.90;;;;;;4936016;29;20061;-74
2021/03/16 06:44:59;;;;;;;8.48;3.45;;;3.70;19.10;;;;;;4937363;29;20052;-73
2021/03/16 06:47:26;;;;;;;9.82;3.33;;;3.70;20.30;;;;;;4940804;29;20051;-73
2021/03/16 06:49:53;;;;;;;7.97;3.40;;;3.70;20.60;;;;;;4943490;29;20114;-75
2021/03/16 06:52:20;;;;;;;7.70;3.33;;;3.70;20.90;;;;;;4940184;29;20058;-74
2021/03/16 06:54:47;;;;;;;9.18;3.00;;;3.70;20.80;;;;;;4935514;29;20043;-73
2021/03/16 06:57:24;;;;;;;14.25;3.30;;;3.70;22.00;;;;;;4932811;29;20055;-73
2021/03/16 07:00:10;;;;;;;11.85;3.60;;;3.60;23.10;;;;;;4942110;28;20051;-73
2021/03/16 07:02:38;;;;;;;7.38;3.10;;;3.50;25.20;;;;;;4941277;29;20074;-72
2021/03/16 07:05:07;;;;;;;7.53;3.22;;;3.50;27.30;;;;;;4934236;29;20433;-73
2021/03/16 07:07:34;;;;;;;10.27;3.20;;;3.40;28.70;;;;;;4943616;29;20055;-75
2021/03/16 07:10:04;;;;;;;5.95;3.53;;;3.30;28.70;;;;;;4945604;29;20055;-73
2021/03/16 07:12:35;;;;;;;9.13;3.67;;;3.30;29.90;;;;;;4944007;29;20131;-72
2021/03/16 07:15:04;;;;;;;10.13;3.10;;;3.20;30.00;;;;;;4939138;29;20055;-73
2021/03/16 07:17:33;;;;;;;10.00;3.72;;;3.20;33.30;;;;;;4947399;29;20069;-74
2021/03/16 07:20:04;;;;;;;8.60;3.20;;;3.10;36.50;;;;;;4942460;29;20082;-73
2021/03/16 07:22:37;;;;;;;9.63;3.53;;;2.90;36.30;;;;;;4940324;29;20483;-73
2021/03/16 07:25:08;;;;;;;9.73;3.50;;;2.80;37.90;;;;;;4935523;29;20052;-73
2021/03/16 07:27:36;;;;;;;10.32;4.20;;;2.80;40.10;;;;;;4945091;29;20087;-73
2021/03/16 07:30:04;;;;;;;13.10;4.53;;;2.90;41.60;;;;;;4941147;29;20059;-73
2021/03/16 07:32:32;;;;;;;15.02;4.88;;;3.00;42.60;;;;;;4943128;29;20063;-74
2021/03/16 07:35:01;;;;;;;9.50;4.25;;;3.20;44.70;;;;;;4940484;29;20075;-73
2021/03/16 07:37:28;;;;;;;9.52;3.72;;;3.20;42.30;;;;;;4943888;29;20067;-74
2021/03/16 07:39:55;;;;;;;10.23;4.20;;;3.30;42.20;;;;;;4944231;29;20051;-73
2021/03/16 07:42:23;;;;;;;10.23;4.15;;;3.30;40.80;;;;;;4941134;29;20054;-73
2021/03/16 07:44:50;;;;;;;9.52;4.15;;;3.40;41.50;;;;;;4943985;29;20054;-74
2021/03/16 07:47:17;;;;;;;10.70;4.03;;;3.60;41.00;;;;;;4945344;29;20054;-74
2021/03/16 07:49:44;;;;;;;8.50;3.70;;;3.60;39.10;;;;;;4944104;29;20051;-73
2021/03/16 07:52:18;;;;;;;12.32;4.57;;;3.60;39.10;;;;;;4941609;28;20498;-76
2021/03/16 07:54:47;;;;;;;7.22;3.75;;;3.70;39.10;;;;;;4942663;29;20110;-75
2021/03/16 07:57:25;;;;;;;6.50;3.03;;;3.60;34.70;;;;;;4950002;29;20044;-75
2021/03/16 07:59:59;;;;;;;9.27;3.83;;;3.70;33.90;;;;;;4944118;29;20052;-75
2021/03/16 08:02:27;;;;;;;10.88;3.80;;;3.70;32.80;;;;;;4940725;29;20055;-73
2021/03/16 08:04:54;;;;;;;11.68;3.72;;;3.70;30.70;;;;;;4940203;29;20054;-75
2021/03/16 08:07:23;;;;;;;7.35;3.70;;;3.70;32.80;;;;;;4943917;29;20135;-75
2021/03/16 08:09:51;;;;;;;13.20;4.25;;;3.80;32.90;;;;;;4942165;29;20062;-73
2021/03/16 08:12:24;;;;;;;9.25;3.25;;;3.80;29.40;;;;;;4949322;29;20139;-74
2021/03/16 08:15:08;;;;;;;55.75;24.95;;;3.80;29.50;;;;;;4935102;28;20059;-73
2021/03/16 08:17:35;;;;;;;7.88;2.88;;;4.00;30.80;;;;;;4943324;29;20490;-74
2021/03/16 08:20:04;;;;;;;10.38;3.67;;;3.90;28.20;;;;;;4943815;29;20565;-74
2021/03/16 08:22:31;;;;;;;13.15;2.95;;;4.00;27.80;;;;;;4947049;29;20421;-74
2021/03/16 08:25:00;;;;;;;9.13;2.90;;;4.00;26.50;;;;;;4940294;29;20091;-78
2021/03/16 08:27:28;;;;;;;7.18;2.88;;;4.10;26.80;;;;;;4944966;29;20047;-75
2021/03/16 08:29:56;;;;;;;12.13;3.63;;;4.20;25.10;;;;;;4942494;29;20060;-74
2021/03/16 08:32:24;;;;;;;9.23;3.15;;;4.20;25.20;;;;;;4948156;29;20052;-74
2021/03/16 08:34:54;;;;;;;11.10;3.20;;;4.30;25.80;;;;;;4942936;29;20055;-75
2021/03/16 08:37:22;;;;;;;8.15;3.45;;;4.40;23.70;;;;;;4940026;29;20517;-75
2021/03/16 08:39:51;;;;;;;9.30;2.97;;;4.40;22.40;;;;;;4942632;29;20051;-75
2021/03/16 08:42:20;;;;;;;10.48;4.15;;;4.60;22.80;;;;;;4943789;29;20418;-74
2021/03/16 08:44:47;;;;;;;6.15;2.70;;;4.70;22.80;;;;;;4942569;29;20047;-75
2021/03/16 08:47:16;;;;;;;8.73;3.63;;;4.50;21.40;;;;;;4940964;29;20070;-75
2021/03/16 08:49:45;;;;;;;10.38;3.72;;;4.70;19.90;;;;;;4945568;29;20058;-74
2021/03/16 08:52:17;;;;;;;5.72;3.17;;;4.80;20.80;;;;;;4938808;29;20052;-76
2021/03/16 08:54:44;;;;;;;8.18;3.28;;;4.70;19.60;;;;;;4936406;29;20058;-76
2021/03/16 08:57:16;;;;;;;14.00;3.80;;;4.80;21.10;;;;;;4940917;29;21569;-75
2021/03/16 08:59:47;;;;;;;10.27;3.35;;;4.70;19.70;;;;;;4940843;29;20075;-74
2021/03/16 09:02:20;;;;;;;8.85;3.17;;;4.80;19.80;;;;;;4939548;29;20053;-74
2021/03/16 09:04:49;;;;;;;10.10;2.95;;;4.60;15.90;;;;;;4937948;29;20051;-74
2021/03/16 09:07:24;;;;;;;14.20;3.47;;;4.80;17.10;;;;;;4943789;29;20047;-74
2021/03/16 09:09:51;;;;;;;13.55;3.25;;;4.80;18.10;;;;;;4940988;29;20051;-74
2021/03/16 09:12:26;;;;;;;9.38;3.20;;;4.80;17.40;;;;;;4938729;29;20047;-74
2021/03/16 09:14:53;;;;;;;12.07;3.58;;;4.70;15.90;;;;;;4937749;29;20052;-74
2021/03/16 09:17:19;;;;;;;10.02;2.83;;;4.80;17.50;;;;;;4940533;29;20050;-75
2021/03/16 09:19:48;;;;;;;11.18;3.40;;;4.70;15.90;;;;;;4946280;29;20421;-73
2021/03/16 09:22:15;;;;;;;6.40;3.47;;;4.90;17.00;;;;;;4937335;29;20446;-73
2021/03/16 09:24:44;;;;;;;11.23;4.05;;;4.80;16.00;;;;;;4936964;29;20047;-72
2021/03/16 09:27:11;;;;;;;8.98;2.55;;;4.80;15.10;;;;;;4942930;28;20055;-73
2021/03/16 09:29:38;;;;;;;7.70;2.65;;;4.80;16.00;;;;;;4941694;29;20358;-75
2021/03/16 09:32:16;;;;;;;8.57;3.60;;;4.80;14.40;;;;;;4939760;29;20051;-75
2021/03/16 09:34:45;;;;;;;11.07;3.15;;;4.70;14.20;;;;;;4939163;29;20054;-74
2021/03/16 09:37:15;;;;;;;5.30;2.60;;;4.80;16.20;;;;;;4941482;29;20043;-74
2021/03/16 09:39:52;;;;;;;8.63;2.67;;;4.90;16.70;;;;;;4938542;29;20054;-74
2021/03/16 09:42:30;;;;;;;7.28;2.70;;;4.60;17.40;;;;;;4938718;29;20402;-74
2021/03/16 09:44:58;;;;;;;6.35;3.17;;;4.80;18.80;;;;;;4936363;29;20118;-73
2021/03/16 09:47:37;;;;;;;7.05;2.50;;;4.80;18.10;;;;;;4938722;29;20142;-73
2021/03/16 09:50:08;;;;;;;7.10;3.28;;;4.70;17.50;;;;;;4942425;29;20576;-74
2021/03/16 09:52:36;;;;;;;6.30;3.03;;;4.70;18.30;;;;;;4939701;29;20071;-74
2021/03/16 09:55:04;;;;;;;7.38;2.47;;;4.70;18.50;;;;;;4931555;29;20054;-75
2021/03/16 09:57:33;;;;;;;10.40;3.25;;;4.50;15.50;;;;;;4942976;29;20073;-74
2021/03/16 10:00:00;;;;;;;8.82;3.00;;;4.50;16.70;;;;;;4938771;29;20398;-74
2021/03/16 10:02:42;;;;;;;7.10;2.70;;;4.60;17.40;;;;;;4939764;29;20083;-74
2021/03/16 10:05:11;;;;;;;7.72;3.75;;;4.50;16.40;;;;;;4931846;29;20050;-75
2021/03/16 10:07:42;;;;;;;7.78;3.28;;;4.70;16.00;;;;;;4943584;29;20051;-74
2021/03/16 10:10:15;;;;;;;11.07;4.20;;;4.90;16.00;;;;;;4937612;29;20047;-74
2021/03/16 10:12:57;;;;;;;11.23;3.70;;;5.00;16.10;;;;;;4939232;29;20063;-74
2021/03/16 10:15:26;;;;;;;10.95;3.17;;;4.80;14.90;;;;;;4932727;29;20067;-74
2021/03/16 10:17:55;;;;;;;9.38;3.25;;;4.90;15.80;;;;;;4942327;29;20063;-73
2021/03/16 10:20:26;;;;;;;11.90;3.17;;;5.10;16.20;;;;;;4939917;29;20051;-74
2021/03/16 10:22:57;;;;;;;9.68;3.05;;;5.10;15.70;;;;;;4939068;29;20459;-73
2021/03/16 10:25:28;;;;;;;10.48;3.25;;;5.10;12.20;;;;;;4938863;29;20056;-75
2021/03/16 10:27:59;;;;;;;12.27;3.60;;;5.10;11.30;;;;;;4940490;29;20428;-73
2021/03/16 10:30:31;;;;;;;8.50;3.67;;;5.10;11.80;;;;;;4942213;29;20574;-75
2021/03/16 10:33:06;;;;;;;8.63;3.40;;;5.40;10.10;;;;;;4935123;29;20187;-73
2021/03/16 10:35:34;;;;;;;7.03;3.53;;;5.40;12.60;;;;;;4938776;29;20053;-74
2021/03/16 10:38:03;;;;;;;11.40;3.33;;;5.60;10.70;;;;;;4943257;29;20495;-74
2021/03/16 10:40:30;;;;;;;11.73;4.28;;;5.50;9.90;;;;;;4951528;29;20147;-74
2021/03/16 10:42:58;;;;;;;11.43;3.10;;;5.50;8.80;;;;;;4939871;29;20138;-75
2021/03/16 10:45:25;;;;;;;8.02;3.03;;;5.70;8.90;;;;;;4938278;28;20139;-74
2021/03/16 10:47:52;;;;;;;13.73;4.45;;;5.90;9.60;;;;;;4938024;29;20138;-74
2021/03/16 10:50:19;;;;;;;9.38;3.20;;;5.80;9.50;;;;;;4940405;29;20060;-74
2021/03/16 10:52:46;;;;;;;11.55;3.30;;;5.90;8.70;;;;;;4946672;29;20055;-73
2021/03/16 10:55:14;;;;;;;11.32;3.33;;;5.90;8.50;;;;;;4943824;29;20054;-74
2021/03/16 10:57:41;;;;;;;11.68;3.83;;;6.10;6.00;;;;;;4951757;29;20055;-75
2021/03/16 11:00:09;;;;;;;6.93;2.95;;;6.50;5.70;;;;;;4948957;29;20513;-76
2021/03/16 11:02:37;;;;;;;9.85;4.40;;;6.30;2.30;;;;;;4942663;29;20051;-74
2021/03/16 11:05:07;;;;;;;11.20;3.38;;;6.50;1.90;;;;;;4942078;29;20054;-77
2021/03/16 11:07:34;;;;;;;15.45;3.45;;;6.40;1.00;;;;;;4950463;29;20528;-75
2021/03/16 11:10:02;;;;;;;11.98;3.30;;;6.40;2.50;;;;;;4949388;29;20441;-78
2021/03/16 11:12:30;;;;;;;11.23;4.10;;;6.50;2.50;;;;;;4937582;29;20047;-74
2021/03/16 11:14:57;;;;;;;8.85;3.35;;;6.40;2.50;;;;;;4941879;29;20051;-74
2021/03/16 11:17:23;;;;;;;13.45;3.45;;;6.30;1.00;;;;;;4943733;29;20094;-72
2021/03/16 11:23:09;;;;;;;13.63;4.10;;;6.10;1.00;;;;;;5342162;23;20083;-73
2021/03/16 11:25:36;;;;;;;8.85;3.28;;;6.20;1.00;;;;;;4936403;29;20051;-72
2021/03/16 11:28:05;;;;;;;6.70;2.97;;;6.00;1.30;;;;;;4940454;29;20066;-72
2021/03/16 11:30:32;;;;;;;12.63;3.47;;;6.00;1.00;;;;;;4938921;29;20055;-72
2021/03/16 11:32:59;;;;;;;8.00;3.40;;;6.00;1.00;;;;;;4941657;29;20414;-74
2021/03/16 11:35:26;;;;;;;11.20;3.38;;;6.10;1.00;;;;;;4938653;29;20094;-74
2021/03/16 11:37:53;;;;;;;5.72;2.70;;;6.10;1.00;;;;;;4941257;29;20055;-72
2021/03/16 11:40:21;;;;;;;5.95;2.85;;;5.70;1.00;;;;;;4943261;29;20135;-72
2021/03/16 11:42:48;;;;;;;7.20;3.13;;;5.60;1.00;;;;;;4942053;29;20043;-73
2021/03/16 11:45:15;;;;;;;6.13;3.17;;;5.40;1.80;;;;;;4937353;29;20048;-74
2021/03/16 11:47:42;;;;;;;10.82;4.10;;;5.40;4.30;;;;;;4944115;29;20187;-72
2021/03/16 11:50:11;;;;;;;9.68;3.67;;;5.40;6.10;;;;;;4943289;28;20134;-73
2021/03/16 11:52:38;;;;;;;9.32;3.20;;;5.40;1.90;;;;;;4939065;29;20055;-72
2021/03/16 11:55:06;;;;;;;7.57;2.92;;;5.50;1.90;;;;;;4942051;29;20043;-73
2021/03/16 11:57:33;;;;;;;8.80;3.55;;;5.60;1.00;;;;;;4942514;29;20066;-73
2021/03/16 12:00:00;;;;;;;8.75;3.20;;;5.60;1.00;;;;;;4940185;29;20138;-73
2021/03/16 12:02:33;;;;;;;10.13;2.75;;;5.80;1.00;;;;;;4937232;29;20209;-72
2021/03/16 12:05:00;;;;;;;8.23;3.55;;;6.00;1.00;;;;;;4936495;29;20548;-72
2021/03/16 12:07:27;;;;;;;6.88;3.15;;;6.00;1.00;;;;;;4941336;29;20044;-72
2021/03/16 12:09:54;;;;;;;6.80;2.88;;;5.90;1.00;;;;;;4943012;29;20134;-72
2021/03/16 12:12:21;;;;;;;8.18;3.20;;;6.20;1.00;;;;;;4936338;29;20047;-71
2021/03/16 12:14:48;;;;;;;12.60;3.10;;;6.10;1.00;;;;;;4940645;29;20069;-73
2021/03/16 12:17:15;;;;;;;9.32;2.70;;;6.20;1.00;;;;;;4942153;29;20074;-72
2021/03/16 12:19:43;;;;;;;11.63;3.63;;;6.20;1.00;;;;;;4943160;29;20119;-72
2021/03/16 12:22:10;;;;;;;9.07;2.58;;;6.40;1.00;;;;;;4936869;28;20146;-72
2021/03/16 12:24:37;;;;;;;6.53;2.15;;;6.20;1.00;;;;;;4938309;28;21214;-72
2021/03/16 12:27:04;;;;;;;5.75;2.30;;;6.10;1.00;;;;;;4937400;28;20047;-72
2021/03/16 12:29:31;;;;;;;9.27;2.50;;;6.30;1.00;;;;;;4936976;29;20573;-72
2021/03/16 12:31:58;;;;;;;7.32;2.88;;;6.20;1.00;;;;;;4939792;29;20063;-72
2021/03/16 12:34:38;;;;;;;7.72;2.40;;;6.60;1.00;;;;;;4935758;29;20055;-72
2021/03/16 12:37:07;;;;;;;10.07;2.75;;;6.70;1.00;;;;;;4943709;29;20039;-73
2021/03/16 12:39:34;;;;;;;6.47;1.75;;;6.60;1.00;;;;;;4942893;28;21377;-72
2021/03/16 12:42:01;;;;;;;6.80;2.03;;;6.30;1.00;;;;;;4936200;29;20055;-72
2021/03/16 12:44:30;;;;;;;11.63;2.92;;;6.30;1.00;;;;;;4936948;29;20131;-72
2021/03/16 12:46:57;;;;;;;6.82;3.13;;;6.20;1.00;;;;;;4942877;29;20075;-73
2021/03/16 12:49:24;;;;;;;8.82;4.05;;;6.50;1.00;;;;;;4940347;29;20068;-73
2021/03/16 12:51:52;;;;;;;7.90;3.13;;;6.60;1.00;;;;;;4938905;29;20527;-73
2021/03/16 12:54:22;;;;;;;10.25;3.00;;;6.70;1.00;;;;;;4938717;29;20513;-73
2021/03/16 12:56:49;;;;;;;6.97;2.50;;;6.70;1.00;;;;;;4941241;29;20052;-73
2021/03/16 12:59:16;;;;;;;7.57;2.90;;;7.00;1.00;;;;;;4938787;29;20048;-72
2021/03/16 13:01:43;;;;;;;6.00;2.17;;;7.10;1.00;;;;;;4930748;28;20057;-71
2021/03/16 13:04:10;;;;;;;5.15;2.45;;;6.80;1.00;;;;;;4933227;29;20073;-73
2021/03/16 13:06:38;;;;;;;5.93;2.28;;;6.70;1.00;;;;;;4932440;29;20425;-71
2021/03/16 13:09:06;;;;;;;6.95;2.42;;;6.50;1.00;;;;;;4939920;29;20051;-72